Time;durP1;ratioP1;P1;durP2;ratioP2;P2;SDS_P1;SDS_P2;PMS_P1;PMS_P2;Temp;Humidity;BMP_temperature;BMP_pressure;BME280_temperature;BME280_humidity;BME280_pressure;Samples;Min_cycle;Max_cycle;Signal;HPM_P1;HPM_P2
2021/11/11 00:01:39;;;;;;;24.90;11.10;;;;;;;-0.50;63.15;101472.66;24475;1354;3026676;-72
2021/11/11 00:04:11;;;;;;;26.80;10.60;;;;;;;-0.50;63.21;101474.21;24509;1359;3055894;-72
2021/11/11 00:06:41;;;;;;;24.40;10.30;;;;;;;-0.53;63.30;101463.68;24463;1358;3027094;-74
2021/11/11 00:09:11;;;;;;;24.30;11.30;;;;;;;-0.58;63.57;101463.24;24477;1354;3027211;-72
2021/11/11 00:11:40;;;;;;;19.40;10.10;;;;;;;-0.62;63.60;101468.17;24479;1354;3027056;-74
2021/11/11 00:14:10;;;;;;;25.40;11.40;;;;;;;-0.64;63.33;101461.23;24460;1347;3027039;-73
2021/11/11 00:16:39;;;;;;;18.70;8.80;;;;;;;-0.58;63.36;101464.09;24463;1360;3030816;-73
2021/11/11 00:19:12;;;;;;;18.30;7.10;;;;;;;-0.55;62.97;101460.02;24506;1354;3027552;-72
2021/11/11 00:21:55;;;;;;;16.80;7.10;;;;;;;-0.54;62.95;101457.63;24480;1361;3051536;-72
2021/11/11 00:24:23;;;;;;;15.10;6.90;;;;;;;-0.54;63.05;101456.27;24465;1350;3026634;-72
2021/11/11 00:26:53;;;;;;;16.30;7.50;;;;;;;-0.51;63.04;101457.85;24487;1354;3051315;-72
2021/11/11 00:29:22;;;;;;;20.10;9.00;;;;;;;-0.51;62.83;101454.58;24488;1356;3026665;-73
2021/11/11 00:31:51;;;;;;;20.10;8.60;;;;;;;-0.59;63.46;101457.90;24491;1355;3026639;-72
2021/11/11 00:34:20;;;;;;;25.30;8.90;;;;;;;-0.51;63.07;101458.55;24485;1360;3028121;-73
2021/11/11 00:36:49;;;;;;;19.90;8.10;;;;;;;-0.46;62.58;101456.73;24498;1355;3050781;-73
2021/11/11 00:39:18;;;;;;;13.60;7.00;;;;;;;-0.50;62.74;101448.40;24524;1355;3028426;-74
2021/11/11 00:41:48;;;;;;;16.10;7.00;;;;;;;-0.52;62.54;101448.36;24478;1360;3052321;-72
2021/11/11 00:44:17;;;;;;;13.50;7.30;;;;;;;-0.44;62.56;101439.02;24517;1355;3026411;-72
2021/11/11 00:46:46;;;;;;;19.60;8.90;;;;;;;-0.49;62.86;101436.71;24500;1355;3048770;-71
2021/11/11 00:49:15;;;;;;;15.90;8.50;;;;;;;-0.47;62.90;101435.70;24480;1360;3026037;-73
2021/11/11 00:51:45;;;;;;;20.80;9.20;;;;;;;-0.54;63.29;101432.67;24474;1355;3068420;-73
2021/11/11 00:54:15;;;;;;;14.10;6.80;;;;;;;-0.58;63.36;101430.55;24467;1354;3027285;-71
2021/11/11 00:56:44;;;;;;;21.30;7.90;;;;;;;-0.55;63.33;101425.94;24513;1355;3027159;-72
2021/11/11 00:59:15;;;;;;;17.30;8.60;;;;;;;-0.56;63.35;101419.89;24432;1361;3070138;-74
2021/11/11 01:01:44;;;;;;;16.70;8.60;;;;;;;-0.65;63.87;101415.63;24489;1358;3025858;-74
2021/11/11 01:04:13;;;;;;;24.30;10.00;;;;;;;-0.73;64.22;101415.65;24480;1355;3051932;-73
2021/11/11 01:06:42;;;;;;;23.10;10.80;;;;;;;-0.82;64.66;101411.55;24459;1358;3026384;-71
2021/11/11 01:09:11;;;;;;;28.30;11.60;;;;;;;-0.82;65.02;101403.80;24496;1355;3055465;-71
2021/11/11 01:11:57;;;;;;;36.70;14.10;;;;;;;-0.83;64.97;101397.25;24455;1360;3053623;-75
2021/11/11 01:14:27;;;;;;;35.30;13.90;;;;;;;-0.88;65.26;101393.21;24444;1354;3026821;-74
2021/11/11 01:16:58;;;;;;;47.30;15.70;;;;;;;-0.95;65.58;101387.92;24489;1358;3026075;-71
2021/11/11 01:19:26;;;;;;;146.10;37.30;;;;;;;-0.98;65.84;101394.06;24469;1354;3028464;-75
2021/11/11 01:21:56;;;;;;;443.20;96.50;;;;;;;-0.99;65.84;101391.81;24448;1358;3070527;-71
2021/11/11 01:24:26;;;;;;;309.50;62.70;;;;;;;-0.97;65.61;101393.21;24434;1361;3030131;-76
2021/11/11 01:26:55;;;;;;;308.80;66.50;;;;;;;-0.94;65.74;101390.85;24470;1356;3051395;-74
2021/11/11 01:29:24;;;;;;;282.00;58.40;;;;;;;-0.94;66.26;101396.55;24500;1354;3027706;-74
2021/11/11 01:31:59;;;;;;;339.40;72.00;;;;;;;-1.00;66.45;101407.63;24493;1354;3050917;-75
2021/11/11 01:34:28;;;;;;;225.00;49.20;;;;;;;-0.94;66.03;101407.36;24465;1359;3028945;-72
2021/11/11 01:36:59;;;;;;;131.60;32.80;;;;;;;-0.87;65.83;101406.80;24507;1359;3026845;-73
2021/11/11 01:39:28;;;;;;;77.20;22.20;;;;;;;-0.85;66.05;101409.77;24481;1359;3026981;-75
2021/11/11 01:42:02;;;;;;;31.20;11.90;;;;;;;-0.85;66.16;101408.91;24494;1354;3053073;-73
2021/11/11 01:44:32;;;;;;;39.30;14.00;;;;;;;-0.89;66.69;101401.45;24500;1354;3029892;-74
2021/11/11 01:47:01;;;;;;;28.20;11.70;;;;;;;-0.97;67.15;101395.96;24511;1354;3026751;-72
2021/11/11 01:49:32;;;;;;;25.50;11.60;;;;;;;-1.06;67.47;101395.98;24443;1357;3027446;-72
2021/11/11 01:52:01;;;;;;;33.60;13.70;;;;;;;-1.02;67.24;101394.52;24493;1358;3027181;-72
2021/11/11 01:54:31;;;;;;;32.90;14.50;;;;;;;-1.08;67.48;101395.27;24452;1358;3056195;-72
2021/11/11 01:57:02;;;;;;;38.20;14.50;;;;;;;-1.04;67.16;101397.91;24457;1356;3026326;-74
2021/11/11 01:59:33;;;;;;;35.20;14.00;;;;;;;-1.01;66.76;101401.23;24459;1354;3027222;-73
2021/11/11 02:02:09;;;;;;;30.60;12.40;;;;;;;-1.05;66.76;101401.01;24483;1354;3027325;-73
2021/11/11 02:04:45;;;;;;;30.60;13.10;;;;;;;-1.16;67.18;101400.29;24486;1357;3068061;-73
2021/11/11 02:07:15;;;;;;;28.40;11.50;;;;;;;-1.27;67.76;101396.12;24459;1351;3026343;-72
2021/11/11 02:09:52;;;;;;;23.20;10.80;;;;;;;-1.32;68.15;101391.73;24466;1357;3053319;-73
2021/11/11 02:12:41;;;;;;;31.90;15.30;;;;;;;-1.27;68.27;101393.89;24448;1362;3071070;-71
2021/11/11 02:15:16;;;;;;;36.90;17.00;;;;;;;-1.26;67.90;101395.29;24480;1354;3048274;-73
2021/11/11 02:17:48;;;;;;;42.90;19.30;;;;;;;-1.22;67.76;101395.17;24490;1354;3026404;-72
2021/11/11 02:20:25;;;;;;;35.50;15.20;;;;;;;-1.29;68.14;101385.43;24486;1359;3051422;-74
2021/11/11 02:23:17;;;;;;;26.80;13.00;;;;;;;-1.32;68.35;101382.27;24458;1355;3056061;-73
2021/11/11 02:26:03;;;;;;;27.10;12.10;;;;;;;-1.31;68.18;101386.58;24452;1360;3052818;-72
2021/11/11 02:28:41;;;;;;;25.40;12.40;;;;;;;-1.34;68.12;101390.66;24498;1354;3052683;-74
2021/11/11 02:31:10;;;;;;;35.50;14.80;;;;;;;-1.36;68.21;101392.67;24446;1361;3026772;-74
2021/11/11 02:33:51;;;;;;;39.00;17.00;;;;;;;-1.48;68.72;101387.13;24472;1355;3052430;-71
2021/11/11 02:36:20;;;;;;;78.00;28.30;;;;;;;-1.50;68.82;101381.59;24487;1358;3056930;-72
2021/11/11 02:38:50;;;;;;;38.70;16.00;;;;;;;-1.48;68.85;101375.45;24458;1358;3026163;-73
2021/11/11 02:41:20;;;;;;;31.40;13.80;;;;;;;-1.32;68.18;101373.15;24464;1359;3026634;-73
2021/11/11 02:43:50;;;;;;;33.40;13.30;;;;;;;-1.29;68.05;101368.73;24490;1354;3027337;-74
2021/11/11 02:46:24;;;;;;;29.10;13.90;;;;;;;-1.33;68.22;101368.15;24509;1361;3026453;-73
2021/11/11 02:48:53;;;;;;;37.10;15.70;;;;;;;-1.43;68.74;101362.81;24513;1359;3026612;-72
2021/11/11 02:51:22;;;;;;;33.00;15.00;;;;;;;-1.48;69.14;101367.52;24389;1357;3028461;-72
2021/11/11 02:53:56;;;;;;;32.40;14.10;;;;;;;-1.47;69.13;101360.51;24506;1354;3052877;-72
2021/11/11 02:56:27;;;;;;;39.60;15.20;;;;;;;-1.42;68.59;101366.95;24471;1361;3026375;-73
2021/11/11 02:58:57;;;;;;;41.80;17.30;;;;;;;-1.51;69.16;101374.69;24458;1354;3026652;-73
2021/11/11 03:01:26;;;;;;;28.30;12.20;;;;;;;-1.57;69.59;101380.77;24415;1354;3050550;-73
2021/11/11 03:03:55;;;;;;;25.80;9.90;;;;;;;-0.72;68.12;101379.70;24503;1354;3027091;-72
2021/11/11 03:06:26;;;;;;;21.80;10.00;;;;;;;0.00;66.14;101372.31;24505;1354;3026515;-73
2021/11/11 03:08:55;;;;;;;23.60;11.30;;;;;;;0.27;64.50;101365.95;24459;1354;3028012;-75
2021/11/11 03:11:47;;;;;;;22.60;9.40;;;;;;;0.05;64.06;101362.56;24481;1361;3053154;-74
2021/11/11 03:14:16;;;;;;;21.00;9.90;;;;;;;-0.21;64.63;101368.42;24454;1357;3025983;-72
2021/11/11 03:16:46;;;;;;;21.10;10.60;;;;;;;-0.30;64.90;101365.02;24129;1359;3027080;-73
2021/11/11 03:19:16;;;;;;;20.00;11.00;;;;;;;-0.51;65.33;101364.20;24453;1354;3026500;-72
2021/11/11 03:21:49;;;;;;;26.00;11.90;;;;;;;-0.62;65.58;101364.88;24503;1355;3027296;-75
2021/11/11 03:24:18;;;;;;;22.70;11.60;;;;;;;-0.69;65.67;101360.64;24462;1358;3030125;-72
2021/11/11 03:26:48;;;;;;;28.20;13.00;;;;;;;-0.76;65.84;101358.48;24433;1361;3029693;-72
2021/11/11 03:29:18;;;;;;;28.10;12.90;;;;;;;-0.82;66.02;101356.48;24469;1359;3026729;-73
2021/11/11 03:31:51;;;;;;;27.40;11.50;;;;;;;-0.89;66.06;101350.35;24466;1361;3054330;-73
2021/11/11 03:34:22;;;;;;;30.20;14.30;;;;;;;-0.91;66.13;101349.11;24492;1354;3026870;-74
2021/11/11 03:36:53;;;;;;;29.70;11.90;;;;;;;-1.01;66.27;101348.77;24471;1351;3052586;-73
2021/11/11 03:39:23;;;;;;;27.00;12.20;;;;;;;-1.17;67.19;101341.44;24505;1358;3028448;-74
2021/11/11 03:41:52;;;;;;;23.70;11.20;;;;;;;-1.28;67.36;101341.61;24470;1355;3026483;-72
2021/11/11 03:44:22;;;;;;;25.20;11.20;;;;;;;-1.17;66.97;101336.27;24494;1355;3026324;-74
2021/11/11 03:46:54;;;;;;;24.10;11.90;;;;;;;-1.21;67.21;101342.23;24455;1362;3028426;-73
2021/11/11 03:49:23;;;;;;;30.40;12.90;;;;;;;-1.27;67.32;101345.91;24468;1358;3026453;-74
2021/11/11 03:51:52;;;;;;;28.60;12.30;;;;;;;-1.19;66.98;101340.72;24484;1353;3027727;-74
2021/11/11 03:54:24;;;;;;;26.40;12.70;;;;;;;-1.34;67.69;101337.02;24498;1354;3026271;-74
2021/11/11 03:56:56;;;;;;;27.20;12.50;;;;;;;-1.42;67.70;101336.88;24500;1360;3026023;-73
2021/11/11 03:59:26;;;;;;;28.10;13.10;;;;;;;-1.48;68.36;101340.53;24496;1359;3027653;-73
2021/11/11 04:01:56;;;;;;;28.10;13.80;;;;;;;-1.40;67.75;101338.11;24478;1360;3026896;-74
2021/11/11 04:04:27;;;;;;;23.70;10.70;;;;;;;-1.45;67.87;101333.38;24443;1359;3026573;-73
2021/11/11 04:06:57;;;;;;;24.20;11.60;;;;;;;-1.32;67.36;101336.38;24492;1354;3028227;-73
2021/11/11 04:09:27;;;;;;;28.20;10.70;;;;;;;-1.24;66.82;101324.80;24473;1360;3026704;-72
2021/11/11 04:11:58;;;;;;;28.10;10.20;;;;;;;-1.19;66.63;101328.33;24486;1360;3026500;-72
2021/11/11 04:14:27;;;;;;;27.70;11.20;;;;;;;-1.25;66.81;101325.84;24533;1355;3026695;-72
2021/11/11 04:16:56;;;;;;;29.30;11.80;;;;;;;-1.42;67.52;101325.88;24461;1356;3028677;-74
2021/11/11 04:19:26;;;;;;;28.00;12.70;;;;;;;-1.42;67.56;101332.23;24490;1356;3068010;-73
2021/11/11 04:21:55;;;;;;;29.30;12.60;;;;;;;-1.26;66.94;101336.64;24454;1359;3026608;-73
2021/11/11 04:24:24;;;;;;;34.30;13.10;;;;;;;-1.24;66.63;101331.52;24471;1358;3026311;-72
2021/11/11 04:29:59;;;;;;;29.00;11.60;;;;;;;-1.14;65.96;101319.48;24415;1362;3051973;-73
2021/11/11 04:32:28;;;;;;;35.80;13.90;;;;;;;-1.21;66.16;101319.71;24481;1363;3055542;-74
2021/11/11 04:34:59;;;;;;;24.10;11.60;;;;;;;-1.17;66.13;101322.88;24478;1358;3026609;-73
2021/11/11 04:37:33;;;;;;;27.90;11.00;;;;;;;-1.17;66.37;101330.27;24445;1362;3051791;-74
2021/11/11 04:51:25;;;;;;;31.60;12.50;;;;;;;-1.31;67.37;101344.80;24472;1359;3055462;-73
2021/11/11 05:02:50;;;;;;;79.50;24.50;;;;;;;-1.16;66.42;101348.69;24424;1363;3054877;-73
2021/11/11 05:05:20;;;;;;;72.40;25.50;;;;;;;-1.10;66.19;101353.44;24498;1355;3051388;-74
2021/11/11 05:07:52;;;;;;;54.40;20.90;;;;;;;-1.06;65.88;101352.13;24454;1357;3028851;-73
2021/11/11 05:10:21;;;;;;;61.10;23.20;;;;;;;-1.05;65.77;101355.42;24450;1358;3026800;-74
2021/11/11 05:12:54;;;;;;;70.50;22.80;;;;;;;-1.11;66.40;101359.95;24482;1361;3026798;-72
2021/11/11 05:15:24;;;;;;;68.50;25.00;;;;;;;-1.12;66.25;101356.48;24531;1361;3026744;-73
2021/11/11 05:17:55;;;;;;;61.70;24.10;;;;;;;-1.10;66.37;101356.02;24509;1355;3027111;-71
2021/11/11 05:20:27;;;;;;;50.50;22.80;;;;;;;-1.14;66.55;101360.92;24505;1360;3051907;-72
2021/11/11 05:22:56;;;;;;;58.00;30.00;;;;;;;-1.19;67.06;101365.65;24479;1359;3026522;-73
2021/11/11 05:25:26;;;;;;;52.10;30.40;;;;;;;-1.26;67.90;101363.98;24481;1355;3070397;-74
2021/11/11 05:27:56;;;;;;;51.10;19.60;;;;;;;-1.33;68.19;101358.17;24476;1354;3026270;-74
2021/11/11 05:30:27;;;;;;;38.70;16.70;;;;;;;-1.33;68.34;101362.83;24511;1359;3026697;-74
2021/11/11 05:32:59;;;;;;;33.60;13.30;;;;;;;-1.34;68.48;101365.21;24512;1360;3052095;-75
2021/11/11 05:35:31;;;;;;;33.80;15.30;;;;;;;-1.29;68.61;101357.56;24501;1362;3029578;-73
2021/11/11 05:38:00;;;;;;;39.30;15.40;;;;;;;-1.33;68.31;101356.11;24464;1358;3026562;-73
2021/11/11 05:40:31;;;;;;;34.90;16.30;;;;;;;-1.30;68.28;101357.04;24505;1356;3026986;-73
2021/11/11 05:43:01;;;;;;;45.50;17.30;;;;;;;-1.30;68.06;101352.91;24518;1355;3056177;-72
2021/11/11 05:45:31;;;;;;;47.60;17.20;;;;;;;-1.32;68.07;101352.19;24476;1355;3026841;-73
2021/11/11 05:48:02;;;;;;;41.40;16.80;;;;;;;-1.39;68.22;101357.90;24480;1361;3026567;-74
2021/11/11 05:50:36;;;;;;;40.20;18.60;;;;;;;-1.42;68.72;101352.36;24486;1354;3050882;-72
2021/11/11 05:53:06;;;;;;;44.80;17.50;;;;;;;-1.33;68.43;101356.45;24509;1355;3027128;-71
2021/11/11 05:55:35;;;;;;;46.60;19.60;;;;;;;-1.26;68.63;101354.35;24516;1360;3027376;-73
2021/11/11 05:58:07;;;;;;;53.90;21.50;;;;;;;-1.09;68.15;101347.09;24496;1355;3027052;-75
2021/11/11 06:00:38;;;;;;;50.10;23.30;;;;;;;-1.09;68.93;101354.66;24471;1358;3026465;-73
2021/11/11 06:03:17;;;;;;;45.40;19.50;;;;;;;-1.11;70.49;101362.18;24532;1358;3056783;-72
2021/11/11 06:05:47;;;;;;;42.00;17.60;;;;;;;-0.99;70.53;101357.76;24481;1354;3026300;-73
2021/11/11 06:08:21;;;;;;;38.60;16.80;;;;;;;-0.50;69.07;101349.91;24488;1355;3054910;-73
2021/11/11 06:10:50;;;;;;;31.80;15.40;;;;;;;0.15;67.51;101345.11;24439;1360;3027267;-75
2021/11/11 06:13:23;;;;;;;36.70;15.30;;;;;;;0.26;66.77;101342.33;24420;1355;3051583;-73
2021/11/11 06:15:52;;;;;;;36.90;16.00;;;;;;;0.30;67.34;101338.56;24499;1358;3027291;-73
2021/11/11 06:18:23;;;;;;;33.00;16.40;;;;;;;0.10;68.10;101341.61;24537;1355;3026675;-70
2021/11/11 06:20:59;;;;;;;40.20;16.00;;;;;;;-0.05;68.52;101337.12;24496;1355;3026210;-72
2021/11/11 06:23:31;;;;;;;38.40;17.00;;;;;;;-0.13;68.62;101332.17;24484;1360;3052097;-71
2021/11/11 06:26:01;;;;;;;52.00;17.10;;;;;;;-0.25;69.35;101333.05;24485;1361;3026412;-72
2021/11/11 06:28:32;;;;;;;36.70;16.80;;;;;;;-0.31;69.14;101331.77;24516;1360;3027133;-71
2021/11/11 06:31:04;;;;;;;49.50;18.00;;;;;;;-0.37;69.75;101328.25;24482;1361;3029715;-74
2021/11/11 06:33:35;;;;;;;38.40;17.70;;;;;;;-0.35;69.62;101333.43;24495;1354;3026201;-73
2021/11/11 06:36:04;;;;;;;39.60;19.60;;;;;;;-0.28;70.61;101332.50;24448;1362;3027806;-73
2021/11/11 06:38:34;;;;;;;43.20;18.60;;;;;;;-0.29;70.50;101335.41;24476;1359;3026869;-74
2021/11/11 06:41:04;;;;;;;46.00;21.30;;;;;;;-0.40;71.39;101338.71;24462;1355;3026391;-74
2021/11/11 06:43:34;;;;;;;46.60;20.30;;;;;;;-0.44;71.54;101338.99;24484;1353;3027164;-75
2021/11/11 06:46:05;;;;;;;54.90;21.90;;;;;;;-0.39;70.52;101332.35;24452;1359;3026493;-75
2021/11/11 06:48:34;;;;;;;45.10;18.90;;;;;;;-0.27;70.64;101328.73;24515;1354;3027073;-72
2021/11/11 06:51:03;;;;;;;44.90;21.20;;;;;;;-0.23;70.64;101323.09;24486;1361;3029292;-74
2021/11/11 06:53:33;;;;;;;54.30;21.30;;;;;;;-0.31;71.26;101327.80;24473;1360;3054514;-75
2021/11/11 06:56:01;;;;;;;41.80;18.80;;;;;;;-0.32;71.29;101331.41;24479;1354;3026498;-72
2021/11/11 06:58:31;;;;;;;36.90;17.20;;;;;;;0.37;69.49;101329.15;24471;1356;3048073;-74
2021/11/11 07:01:02;;;;;;;47.10;20.10;;;;;;;1.03;66.56;101323.77;24514;1354;3026658;-74
2021/11/11 07:03:36;;;;;;;39.90;19.70;;;;;;;0.96;65.64;101326.80;24506;1360;3028140;-74
2021/11/11 07:06:05;;;;;;;34.70;18.40;;;;;;;0.81;65.14;101321.84;24490;1362;3026929;-74
2021/11/11 07:08:34;;;;;;;40.10;17.80;;;;;;;0.62;65.07;101317.88;24472;1356;3026512;-73
2021/11/11 07:11:04;;;;;;;37.70;17.10;;;;;;;0.59;65.20;101310.77;24480;1354;3050418;-73
2021/11/11 07:13:34;;;;;;;39.30;16.60;;;;;;;0.52;65.23;101315.19;24494;1361;3026627;-71
2021/11/11 07:16:04;;;;;;;43.90;17.50;;;;;;;0.49;65.83;101317.57;24449;1357;3026991;-71
2021/11/11 07:18:33;;;;;;;37.60;19.10;;;;;;;0.61;65.20;101321.64;24501;1354;3052043;-71
2021/11/11 07:21:02;;;;;;;39.20;16.00;;;;;;;0.58;65.37;101323.70;24515;1354;3026813;-72
2021/11/11 07:23:32;;;;;;;44.20;18.30;;;;;;;0.56;64.71;101320.23;24487;1355;3027171;-72
2021/11/11 07:26:02;;;;;;;33.30;16.00;;;;;;;0.70;64.49;101316.05;24398;1360;3028126;-70
2021/11/11 07:28:31;;;;;;;39.70;17.80;;;;;;;0.87;63.96;101314.14;24505;1357;3026408;-73
2021/11/11 07:31:00;;;;;;;38.50;18.00;;;;;;;0.97;63.79;101314.57;24471;1354;3052068;-69
2021/11/11 07:33:33;;;;;;;44.30;18.70;;;;;;;1.06;63.19;101309.98;24490;1360;3055820;-73
2021/11/11 07:36:04;;;;;;;36.10;17.80;;;;;;;1.13;62.69;101307.63;24493;1359;3026786;-72
2021/11/11 07:38:33;;;;;;;39.20;16.40;;;;;;;1.15;62.48;101301.59;24482;1354;3053705;-77
2021/11/11 07:41:02;;;;;;;39.30;18.00;;;;;;;0.98;62.48;101301.80;24493;1358;3026596;-71
2021/11/11 07:43:31;;;;;;;38.80;16.50;;;;;;;1.10;62.55;101297.07;24424;1360;3056041;-71
2021/11/11 07:46:04;;;;;;;34.30;15.90;;;;;;;1.05;62.75;101303.42;24476;1355;3026720;-72
2021/11/11 07:48:34;;;;;;;37.30;16.40;;;;;;;0.98;63.19;101311.65;24495;1353;3051476;-72
2021/11/11 07:51:06;;;;;;;35.90;16.90;;;;;;;1.14;62.86;101307.27;24475;1357;3028182;-71
2021/11/11 07:53:37;;;;;;;34.70;13.40;;;;;;;1.21;62.85;101305.60;24404;1354;3026486;-74
2021/11/11 07:56:06;;;;;;;32.00;14.40;;;;;;;1.44;61.38;101299.36;24486;1360;3026587;-73
2021/11/11 07:58:36;;;;;;;26.30;11.50;;;;;;;1.48;61.22;101294.39;24518;1357;3055923;-74
2021/11/11 08:01:05;;;;;;;31.20;12.60;;;;;;;1.52;60.46;101293.20;24454;1354;3027359;-71
2021/11/11 08:03:35;;;;;;;22.00;10.50;;;;;;;1.67;59.96;101301.40;24468;1355;3026460;-72
2021/11/11 08:06:05;;;;;;;21.40;9.10;;;;;;;1.63;59.70;101303.98;24484;1354;3055944;-72
2021/11/11 08:08:34;;;;;;;20.70;9.10;;;;;;;1.75;59.60;101301.80;24476;1358;3026055;-69
2021/11/11 08:11:04;;;;;;;24.90;9.60;;;;;;;1.46;59.73;101305.42;24480;1351;3053689;-73
2021/11/11 08:13:33;;;;;;;26.50;10.90;;;;;;;1.58;59.67;101303.77;24478;1354;3028041;-73
2021/11/11 08:16:02;;;;;;;27.80;11.30;;;;;;;1.67;59.73;101293.98;24485;1351;3029792;-73
2021/11/11 08:18:33;;;;;;;22.10;11.20;;;;;;;1.71;59.77;101295.20;24481;1361;3051721;-72
2021/11/11 08:21:02;;;;;;;20.90;9.90;;;;;;;1.76;59.83;101285.38;24507;1360;3026936;-74
2021/11/11 08:23:31;;;;;;;20.00;8.90;;;;;;;1.94;59.28;101285.80;24505;1354;3054197;-70
2021/11/11 08:26:05;;;;;;;23.60;10.20;;;;;;;2.03;58.94;101277.55;24566;1355;3026633;-71
2021/11/11 08:28:36;;;;;;;20.20;10.10;;;;;;;2.03;58.90;101271.48;24565;1355;3026309;-72
2021/11/11 08:31:05;;;;;;;24.60;9.30;;;;;;;2.16;58.66;101263.23;24463;1355;3026881;-73
2021/11/11 08:33:34;;;;;;;23.50;10.50;;;;;;;2.08;59.28;101258.02;24541;1355;3053653;-72
2021/11/11 08:36:04;;;;;;;20.00;9.00;;;;;;;2.09;58.74;101259.77;24476;1353;3026645;-72
2021/11/11 08:38:34;;;;;;;22.50;9.00;;;;;;;2.18;58.70;101257.88;24631;1358;3053333;-71
2021/11/11 08:41:03;;;;;;;24.40;10.20;;;;;;;2.13;59.10;101252.85;24476;1355;3026821;-73
2021/11/11 08:43:34;;;;;;;18.00;9.50;;;;;;;2.13;58.88;101251.12;24506;1361;3027468;-75
2021/11/11 08:46:05;;;;;;;20.80;9.70;;;;;;;2.28;59.04;101244.58;24487;1355;3026696;-70
2021/11/11 08:48:34;;;;;;;18.30;8.60;;;;;;;2.37;58.81;101243.92;24482;1358;3028685;-71
2021/11/11 08:51:03;;;;;;;26.40;9.80;;;;;;;2.47;58.47;101242.54;24453;1355;3057510;-72
2021/11/11 08:53:33;;;;;;;16.70;8.50;;;;;;;2.50;58.48;101240.12;24523;1353;3026697;-73
2021/11/11 08:56:02;;;;;;;17.80;9.00;;;;;;;2.36;58.97;101249.45;24517;1354;3026376;-72
2021/11/11 08:58:36;;;;;;;22.40;9.50;;;;;;;2.34;59.32;101238.73;24540;1355;3026745;-71
2021/11/11 09:01:07;;;;;;;16.00;7.80;;;;;;;2.67;58.54;101226.81;24473;1361;3027579;-73
2021/11/11 09:03:39;;;;;;;17.60;8.40;;;;;;;2.75;58.01;101226.82;24499;1357;3026668;-72
2021/11/11 09:06:08;;;;;;;22.70;8.90;;;;;;;2.80;58.01;101220.92;24487;1357;3027171;-74
2021/11/11 09:08:37;;;;;;;18.60;8.10;;;;;;;2.95;57.43;101211.57;24471;1355;3027055;-69
2021/11/11 09:11:07;;;;;;;19.20;7.60;;;;;;;2.91;57.16;101204.98;24503;1357;3026918;-73
2021/11/11 09:13:37;;;;;;;20.40;8.70;;;;;;;2.81;57.92;101199.46;24450;1355;3026232;-74
2021/11/11 09:16:07;;;;;;;15.80;8.10;;;;;;;3.00;57.48;101202.73;24488;1358;3027460;-71
2021/11/11 09:18:37;;;;;;;19.00;8.20;;;;;;;3.08;56.96;101214.31;24514;1357;3026060;-71
2021/11/11 09:21:09;;;;;;;18.90;8.20;;;;;;;3.02;56.96;101216.06;24538;1348;3049453;-74
2021/11/11 09:23:40;;;;;;;18.10;7.50;;;;;;;3.01;56.96;101209.48;24513;1357;3027450;-71
2021/11/11 09:26:09;;;;;;;16.10;5.90;;;;;;;3.05;56.37;101213.63;24497;1357;3029478;-72
2021/11/11 09:28:39;;;;;;;19.30;8.10;;;;;;;2.93;55.05;101203.09;24474;1355;3026985;-71
2021/11/11 09:31:13;;;;;;;18.90;7.70;;;;;;;2.99;55.49;101196.32;24511;1359;3028353;-74
2021/11/11 09:33:44;;;;;;;16.10;7.20;;;;;;;3.08;55.60;101192.84;24454;1361;3056020;-75
2021/11/11 09:36:16;;;;;;;14.20;6.20;;;;;;;3.16;55.16;101186.92;24535;1355;3027104;-71
2021/11/11 09:38:45;;;;;;;21.50;8.30;;;;;;;3.19;54.75;101184.34;24530;1355;3027025;-69
2021/11/11 09:41:18;;;;;;;13.40;5.80;;;;;;;3.14;54.90;101171.35;24529;1355;3026557;-70
2021/11/11 09:43:48;;;;;;;9.70;5.20;;;;;;;3.32;54.29;101165.25;24477;1359;3026512;-73
2021/11/11 09:46:19;;;;;;;14.80;5.80;;;;;;;3.28;53.99;101165.09;24495;1354;3026873;-73
2021/11/11 09:48:49;;;;;;;12.80;5.30;;;;;;;3.40;53.62;101156.55;24515;1355;3026488;-71
2021/11/11 09:51:21;;;;;;;14.60;6.10;;;;;;;3.50;53.66;101166.89;24466;1357;3028889;-76
2021/11/11 09:54:04;;;;;;;13.70;6.40;;;;;;;3.67;53.21;101164.73;24464;1357;3028617;-76
2021/11/11 09:59:24;;;;;;;28.40;10.00;;;;;;;3.67;53.02;101150.71;24706;1355;3056679;-75
2021/11/11 10:01:54;;;;;;;26.90;8.20;;;;;;;3.66;52.78;101145.86;24517;1358;3026295;-75
2021/11/11 10:04:23;;;;;;;15.50;7.30;;;;;;;3.71;52.35;101148.25;24470;1358;3026040;-74
2021/11/11 10:06:53;;;;;;;18.70;9.40;;;;;;;3.63;51.70;101140.66;24509;1355;3026086;-72
2021/11/11 10:09:23;;;;;;;14.70;6.30;;;;;;;3.55;51.56;101140.88;24438;1357;3026711;-69
2021/11/11 10:11:58;;;;;;;17.10;6.60;;;;;;;3.65;51.39;101136.85;24520;1355;3028908;-69
2021/11/11 10:14:36;;;;;;;19.50;6.50;;;;;;;3.88;50.97;101145.05;24531;1356;3055066;-73
2021/11/11 10:17:10;;;;;;;16.90;7.40;;;;;;;3.90;51.33;101150.58;24457;1356;3051379;-74
2021/11/11 10:19:43;;;;;;;7.30;4.50;;;;;;;3.70;52.01;101163.70;24482;1355;3058952;-75
2021/11/11 10:22:18;;;;;;;18.50;5.90;;;;;;;3.90;51.22;101152.14;24512;1355;3030241;-70
2021/11/11 10:24:54;;;;;;;11.20;5.30;;;;;;;3.71;52.21;101146.17;24467;1355;3051597;-69
2021/11/11 10:30:21;;;;;;;17.80;6.40;;;;;;;3.72;52.77;101140.11;24423;1352;3068895;-73
2021/11/11 10:33:19;;;;;;;18.20;6.50;;;;;;;4.02;52.23;101133.15;24469;1359;3049514;-70
2021/11/11 10:35:55;;;;;;;19.30;6.90;;;;;;;4.23;51.33;101126.77;24466;1358;3052446;-74
2021/11/11 10:38:26;;;;;;;25.10;8.00;;;;;;;4.22;51.02;101124.86;24519;1355;3053081;-70
2021/11/11 10:40:57;;;;;;;54.20;12.20;;;;;;;4.22;51.02;101121.05;24472;1355;3028254;-74
2021/11/11 10:43:28;;;;;;;46.80;10.10;;;;;;;4.12;50.88;101122.69;24494;1358;3025903;-75
2021/11/11 10:45:59;;;;;;;45.90;10.30;;;;;;;4.10;50.98;101107.77;24457;1358;3026868;-74
2021/11/11 10:48:28;;;;;;;36.30;9.50;;;;;;;4.13;50.81;101119.55;24456;1359;3026999;-73
2021/11/11 10:51:00;;;;;;;47.50;11.00;;;;;;;3.99;50.56;101103.70;24506;1355;3026889;-71
2021/11/11 10:53:32;;;;;;;39.70;10.20;;;;;;;4.06;50.53;101090.98;24513;1361;3027512;-76
2021/11/11 10:56:01;;;;;;;26.60;8.50;;;;;;;4.00;50.83;101093.13;24493;1361;3030130;-68
2021/11/11 10:58:37;;;;;;;31.40;8.80;;;;;;;3.86;51.41;101085.94;24488;1361;3026432;-75
2021/11/11 11:01:08;;;;;;;25.70;9.20;;;;;;;3.95;52.05;101071.65;24518;1356;3056645;-69
2021/11/11 11:03:39;;;;;;;27.60;9.90;;;;;;;4.06;51.37;101063.95;24493;1355;3026105;-75
2021/11/11 11:06:13;;;;;;;25.50;8.20;;;;;;;4.20;50.51;101066.08;24540;1358;3026732;-72
2021/11/11 11:08:54;;;;;;;22.20;8.10;;;;;;;4.43;49.40;101059.96;24546;1357;3051366;-71
2021/11/11 11:11:28;;;;;;;24.40;8.60;;;;;;;4.39;50.19;101062.27;24477;1355;3071913;-73
2021/11/11 11:14:23;;;;;;;20.00;7.10;;;;;;;4.43;50.72;101056.50;24518;1356;3049108;-74
2021/11/11 11:16:54;;;;;;;18.90;6.50;;;;;;;4.53;50.68;101046.51;24206;1361;3515453;-74
2021/11/11 11:19:26;;;;;;;18.20;8.00;;;;;;;4.46;50.31;101044.49;24506;1358;3026790;-77
2021/11/11 11:21:55;;;;;;;16.20;7.50;;;;;;;4.43;50.56;101035.34;24442;1357;3026658;-73
2021/11/11 11:24:27;;;;;;;35.10;9.40;;;;;;;4.49;50.88;101041.51;24392;1356;3026969;-76
2021/11/11 11:27:03;;;;;;;21.50;8.20;;;;;;;4.69;50.60;101029.31;24472;1355;3026298;-71
2021/11/11 11:29:39;;;;;;;22.80;8.40;;;;;;;4.82;50.60;101028.14;24450;1357;3051301;-73
2021/11/11 11:32:18;;;;;;;20.40;7.70;;;;;;;4.82;50.58;101028.13;24491;1358;3071252;-67
2021/11/11 11:34:48;;;;;;;20.40;7.60;;;;;;;4.88;50.55;101019.38;24489;1355;3048947;-74
2021/11/11 11:37:22;;;;;;;21.60;6.80;;;;;;;4.74;50.86;101017.80;24473;1363;3026676;-72
2021/11/11 11:39:56;;;;;;;15.00;5.30;;;;;;;4.72;49.96;101009.66;24499;1355;3054667;-72
2021/11/11 11:42:35;;;;;;;10.50;5.10;;;;;;;4.94;49.55;100993.27;24472;1355;3058564;-72
2021/11/11 11:45:16;;;;;;;14.30;4.90;;;;;;;4.92;49.61;100993.81;24485;1356;3049310;-69
2021/11/11 11:47:56;;;;;;;21.90;6.50;;;;;;;4.90;50.05;100999.73;24495;1361;3056079;-73